Eastern Bund — VRHX8 — position and weather

sailwx.info

Track history (hours):
 
Tides and Currents Weather Stations Pressure Air Temp Water Temp Dewpoint Dewpoint Depression Visibility Wind Speed Wind Dir Waves Ship Positions

Eastern Bund

Last reported at 2018-Feb-15 09:31 UTC. Time now 2018-Feb-21 22:49 UTC.
Position N 25°48' E 122°21'.

Length 250 m; draft 14.6 m.

Type: Cargo ship. MMSI: 477866100.

Date/timePositionNaut miles runAvg speedWind from/ knotsBaromVisibWave heightAir tempDewpointWater temp
2018-Feb-15 09:31N 25°48' E 122°21'412.4
2018-Feb-15 09:14N 25°44' E 122°21'312.4
2018-Feb-15 08:59N 25°41' E 122°20'612.4
2018-Feb-15 08:30N 25°35' E 122°19'912.6
2018-Feb-15 07:48N 25°26' E 122°18'412.4
2018-Feb-15 07:30N 25°23' E 122°17'612.6
2018-Feb-15 07:00N 25°17' E 122°16'1512.0
2018-Feb-15 05:45N 25°02' E 122°14'412.1
2018-Feb-15 05:28N 24°58' E 122°13'612.2
2018-Feb-15 05:00N 24°53' E 122°12'612.8
2018-Feb-15 04:30N 24°46' E 122°11'612.6
2018-Feb-15 04:00N 24°40' E 122°09'713.3
2018-Feb-15 03:28N 24°34' E 122°06'9611.5
2018-Feb-14 19:05N 23°04' E 121°28'211.9
2018-Feb-14 18:54N 23°02' E 121°27'912.3
2018-Feb-14 18:12N 22°54' E 121°24'412.3
2018-Feb-14 17:51N 22°50' E 121°22'612.6
2018-Feb-14 17:22N 22°44' E 121°20'812.2
2018-Feb-14 16:42N 22°37' E 121°17'1812.0
2018-Feb-14 15:14N 22°20' E 121°10'711.0
2018-Feb-14 14:39N 22°14' E 121°07'210.9
2018-Feb-14 14:29N 22°13' E 121°07'510.6
2018-Feb-14 14:00N 22°08' E 121°04'369 8.1
2018-Feb-12 16:37N 17°04' E 117°21'2 5.8
2018-Feb-12 16:15N 17°03' E 117°20'2 6.3
2018-Feb-12 15:55N 17°01' E 117°18'3 6.4
2018-Feb-12 15:27N 16°59' E 117°17'3 6.2
2018-Feb-12 14:58N 16°56' E 117°15'3 6.3
2018-Feb-12 14:27N 16°54' E 117°13'3 6.1
2018-Feb-12 13:56N 16°51' E 117°11'3 6.0
2018-Feb-12 13:30N 16°49' E 117°09'3 5.9
2018-Feb-12 13:00N 16°47' E 117°07'3 6.5
2018-Feb-12 12:30N 16°44' E 117°06'3 6.4
2018-Feb-12 12:00N 16°41' E 117°04'4 6.5
2018-Feb-12 11:24N 16°38' E 117°01'3 6.4
2018-Feb-12 11:00N 16°36' E 116°60'4 6.7
2018-Feb-12 10:22N 16°33' E 116°57'3 6.5
2018-Feb-12 09:54N 16°30' E 116°55'3 6.9
2018-Feb-12 09:29N 16°28' E 116°54'5 6.6
2018-Feb-12 08:46N 16°24' E 116°51'2 6.2
2018-Feb-12 08:26N 16°22' E 116°50'5 6.5
2018-Feb-12 07:44N 16°18' E 116°47'2 6.5
2018-Feb-12 07:28N 16°17' E 116°46'  
Track history (hours):
 
Tides and Currents Weather Stations Pressure Air Temp Water Temp Dewpoint Dewpoint Depression Visibility Wind Speed Wind Dir Waves Ship Positions

Eastern Bund

Last reported at 2018-Feb-15 09:31 UTC. Time now 2018-Feb-21 22:49 UTC.
Position N 25°48' E 122°21'.

Length 250 m; draft 14.6 m.

Type: Cargo ship. MMSI: 477866100.

Date/timePositionNaut miles runAvg speedWind from/ knotsBaromVisibWave heightAir tempDewpointWater temp
2018-Feb-15 09:31N 25°48' E 122°21'412.4
2018-Feb-15 09:14N 25°44' E 122°21'312.4
2018-Feb-15 08:59N 25°41' E 122°20'612.4
2018-Feb-15 08:30N 25°35' E 122°19'912.6
2018-Feb-15 07:48N 25°26' E 122°18'412.4
2018-Feb-15 07:30N 25°23' E 122°17'612.6
2018-Feb-15 07:00N 25°17' E 122°16'1512.0
2018-Feb-15 05:45N 25°02' E 122°14'412.1
2018-Feb-15 05:28N 24°58' E 122°13'612.2
2018-Feb-15 05:00N 24°53' E 122°12'612.8
2018-Feb-15 04:30N 24°46' E 122°11'612.6
2018-Feb-15 04:00N 24°40' E 122°09'713.3
2018-Feb-15 03:28N 24°34' E 122°06'9611.5
2018-Feb-14 19:05N 23°04' E 121°28'211.9
2018-Feb-14 18:54N 23°02' E 121°27'912.3
2018-Feb-14 18:12N 22°54' E 121°24'412.3
2018-Feb-14 17:51N 22°50' E 121°22'612.6
2018-Feb-14 17:22N 22°44' E 121°20'812.2
2018-Feb-14 16:42N 22°37' E 121°17'1812.0
2018-Feb-14 15:14N 22°20' E 121°10'711.0
2018-Feb-14 14:39N 22°14' E 121°07'210.9
2018-Feb-14 14:29N 22°13' E 121°07'510.6
2018-Feb-14 14:00N 22°08' E 121°04'369 8.1
2018-Feb-12 16:37N 17°04' E 117°21'2 5.8
2018-Feb-12 16:15N 17°03' E 117°20'2 6.3
2018-Feb-12 15:55N 17°01' E 117°18'3 6.4
2018-Feb-12 15:27N 16°59' E 117°17'3 6.2
2018-Feb-12 14:58N 16°56' E 117°15'3 6.3
2018-Feb-12 14:27N 16°54' E 117°13'3 6.1
2018-Feb-12 13:56N 16°51' E 117°11'3 6.0
2018-Feb-12 13:30N 16°49' E 117°09'3 5.9
2018-Feb-12 13:00N 16°47' E 117°07'3 6.5
2018-Feb-12 12:30N 16°44' E 117°06'3 6.4
2018-Feb-12 12:00N 16°41' E 117°04'4 6.5
2018-Feb-12 11:24N 16°38' E 117°01'3 6.4
2018-Feb-12 11:00N 16°36' E 116°60'4 6.7
2018-Feb-12 10:22N 16°33' E 116°57'3 6.5
2018-Feb-12 09:54N 16°30' E 116°55'3 6.9
2018-Feb-12 09:29N 16°28' E 116°54'5 6.6
2018-Feb-12 08:46N 16°24' E 116°51'2 6.2
2018-Feb-12 08:26N 16°22' E 116°50'5 6.5
2018-Feb-12 07:44N 16°18' E 116°47'2 6.5
2018-Feb-12 07:28N 16°17' E 116°46'  

Dump ship's entire track history